首页
METAR-TAF:

METAR-TAF

机场 :

巴馬科國際機場

巴馬科, 马里共和国

纬度: 12-32N, 经度: 007-57W, 海拔: 380米

当前天气观测

该预报发布于23分钟前的00:00 UTC
风速2节,风向多变
温度 24°C
湿度 78%
气压 1014 hPa
能见度10公里或以上
1500米以下无云,无积雨云

METAR: GABS 220000Z VRB02KT CAVOK 24/20 Q1014 NOSIG

时间: 00:23 (00:23 UTC)

预报

该预报发布于1小时和23分钟前的23:00 UTC
预报有效从22日的 00点(UTC)到 23日的 06点(UTC)
风速6节,风向南转西南
能见度10公里或以上
少量云层高于3000英尺
几率 40% :
短暂存在
从 22日的 12点(UTC)到 22日的 21点(UTC)
风速15节,风向多变,有时为35节阵风
能見度: 1500
散云层高于3000英尺
少量云层高于3300英尺, 积雨云.
高吹尘, 雷暴, 阵雨

TAF: GABS 212300Z 2200/2306 21006KT 9999 FEW030 PROB40 TEMPO 2212/2221 VRB15G35KT 1500 BLDU TS SHRA SCT030 FEW033CB

超过4000个机场的气象观测和天气预报(METAR&TAF报告)。

可查询的气象台以黄色和红色小点在地图上表示。

将鼠标移到小点上方,可查看气象台名称。

然后点击查看天气观测和预报。

如需切换地图:点击带黑十字的绿色按钮放大地图;点击带横线的绿色按钮缩小地图;或者点击绿色箭头查看邻近地区的地图。


METAR-TAF: